createdAt,value
2023-04-22T05:13:40.024Z,6.82
2023-04-22T05:16:10.166Z,6.18
2023-04-22T05:18:36.921Z,3.80
2023-04-22T05:21:08.092Z,4.40
2023-04-22T05:23:35.361Z,3.42
2023-04-22T05:26:03.768Z,4.22
2023-04-22T05:28:30.734Z,4.07
2023-04-22T05:30:57.622Z,6.50
2023-04-22T05:33:28.312Z,6.90
2023-04-22T05:35:55.501Z,6.25
2023-04-22T05:38:22.000Z,8.25
2023-04-22T05:40:48.600Z,4.95
2023-04-22T05:43:16.174Z,4.38
2023-04-22T05:45:47.778Z,7.90
2023-04-22T05:48:15.740Z,4.20
2023-04-22T05:50:52.122Z,5.68
2023-04-22T05:53:18.597Z,5.15
2023-04-22T05:55:45.205Z,5.13
2023-04-22T05:58:12.444Z,6.43
2023-04-22T06:01:14.251Z,4.45
2023-04-22T06:03:49.882Z,5.35
2023-04-22T06:06:17.183Z,5.05
2023-04-22T06:08:45.545Z,5.30
2023-04-22T06:11:12.042Z,5.82
2023-04-22T06:13:38.836Z,6.95
2023-04-22T06:16:06.260Z,5.30
2023-04-22T06:18:34.250Z,7.05
2023-04-22T06:21:01.140Z,7.43
2023-04-22T06:23:27.983Z,9.60
2023-04-22T06:25:54.671Z,9.60
2023-04-22T06:28:21.447Z,10.65
2023-04-22T06:30:50.151Z,11.25
2023-04-22T06:33:16.832Z,11.15
2023-04-22T06:35:46.018Z,10.68
2023-04-22T06:38:12.909Z,10.75
2023-04-22T06:40:48.219Z,9.80
2023-04-22T06:43:22.002Z,9.85
2023-04-22T06:46:07.010Z,12.23
2023-04-22T06:48:40.484Z,9.55
2023-04-22T06:51:24.734Z,10.02
2023-04-22T06:53:51.547Z,8.68
2023-04-22T06:56:18.045Z,11.32
2023-04-22T06:58:44.490Z,9.07
2023-04-22T07:01:10.947Z,8.75
2023-04-22T07:03:40.209Z,9.90
2023-04-22T07:06:10.112Z,7.85
2023-04-22T07:08:36.763Z,11.93
2023-04-22T07:11:03.482Z,10.15
2023-04-22T07:13:34.422Z,10.30
2023-04-22T07:16:01.209Z,14.65
2023-04-22T07:18:28.472Z,11.15
2023-04-22T07:20:55.138Z,16.70
2023-04-22T07:23:21.536Z,10.70
2023-04-22T07:25:47.928Z,14.30
2023-04-22T07:28:14.675Z,12.40
2023-04-22T07:30:41.098Z,10.70
2023-04-22T07:33:07.601Z,9.70
2023-04-22T07:35:34.073Z,9.88
2023-04-22T07:38:00.786Z,8.95
2023-04-22T07:40:27.239Z,10.20
2023-04-22T07:42:53.670Z,8.93
2023-04-22T07:45:20.094Z,13.23
2023-04-22T07:47:46.565Z,8.32
2023-04-22T07:50:13.141Z,8.25
2023-04-22T07:52:39.603Z,8.88
2023-04-22T07:55:07.148Z,9.07
2023-04-22T07:57:38.369Z,9.82
2023-04-22T08:00:07.541Z,8.55
2023-04-22T08:02:38.410Z,12.73
2023-04-22T08:05:05.252Z,8.57
2023-04-22T08:07:33.534Z,8.80
2023-04-22T08:10:00.296Z,7.75
2023-04-22T08:12:26.815Z,7.72
2023-04-22T08:14:53.933Z,8.20
2023-04-22T08:17:21.900Z,16.42
2023-04-22T08:19:48.861Z,8.90
2023-04-22T08:22:15.968Z,7.80
2023-04-22T08:24:42.376Z,11.15
2023-04-22T08:27:08.794Z,10.25
2023-04-22T08:29:35.243Z,8.77
2023-04-22T08:32:02.798Z,8.98
2023-04-22T08:34:29.284Z,8.65
2023-04-22T08:36:55.785Z,6.97
2023-04-22T08:39:22.236Z,8.45
2023-04-22T08:41:50.327Z,7.28
2023-04-22T08:44:16.861Z,6.43
2023-04-22T08:46:46.946Z,6.75
2023-04-22T08:49:17.390Z,7.47
2023-04-22T08:51:44.600Z,7.15
2023-04-22T08:54:11.836Z,7.38
2023-04-22T08:56:41.582Z,8.23
2023-04-22T08:59:09.968Z,6.70
2023-04-22T09:01:37.364Z,8.30
2023-04-22T09:04:04.237Z,5.80
2023-04-22T09:06:32.294Z,6.57
2023-04-22T09:08:58.965Z,4.53
2023-04-22T09:11:29.492Z,4.25
2023-04-22T09:13:55.918Z,5.97
2023-04-22T09:16:22.337Z,6.00
2023-04-22T09:18:50.091Z,4.55
2023-04-22T09:21:16.690Z,6.72
2023-04-22T09:23:46.980Z,4.00
2023-04-22T09:26:14.974Z,4.68
2023-04-22T09:28:49.578Z,4.15
2023-04-22T09:31:16.017Z,3.60
2023-04-22T09:33:42.494Z,4.70
2023-04-22T09:36:09.812Z,4.00
2023-04-22T09:38:36.243Z,4.85
2023-04-22T09:41:08.997Z,4.85
2023-04-22T09:43:35.526Z,3.38
2023-04-22T09:46:02.123Z,2.25
2023-04-22T09:48:28.645Z,2.85
2023-04-22T09:50:55.257Z,2.60
2023-04-22T09:53:21.849Z,3.58
2023-04-22T09:55:53.549Z,2.22
2023-04-22T09:58:20.955Z,3.25
2023-04-22T10:00:49.932Z,3.97
2023-04-22T10:03:17.163Z,2.00
2023-04-22T10:05:45.644Z,6.63
2023-04-22T10:08:14.208Z,2.53
2023-04-22T10:10:41.125Z,2.75
2023-04-22T10:13:08.032Z,2.45
2023-04-22T10:15:43.086Z,1.33
2023-04-22T10:18:13.072Z,2.40
2023-04-22T10:20:41.193Z,3.42
2023-04-22T10:23:14.098Z,2.65
2023-04-22T10:25:40.651Z,2.17
2023-04-22T10:28:09.156Z,2.38
2023-04-22T10:30:37.758Z,2.50
2023-04-22T10:33:28.707Z,6.40
2023-04-22T10:36:10.994Z,3.63
2023-04-22T10:38:39.195Z,3.25
2023-04-22T10:41:05.801Z,4.87
2023-04-22T10:43:46.141Z,1.50
2023-04-22T10:46:31.883Z,1.73
2023-04-22T10:48:59.417Z,3.60
2023-04-22T10:51:46.501Z,4.88
2023-04-22T10:54:31.422Z,2.70
2023-04-22T10:57:10.267Z,8.75
2023-04-22T10:59:50.065Z,4.40
2023-04-22T11:02:17.247Z,2.58
2023-04-22T11:04:43.823Z,3.38
2023-04-22T11:07:17.057Z,3.75
2023-04-22T11:09:45.680Z,5.10
2023-04-22T11:12:39.953Z,4.07
2023-04-22T11:15:18.503Z,3.10
2023-04-22T11:17:51.106Z,3.90
2023-04-22T11:20:18.389Z,2.13
2023-04-22T11:22:47.013Z,3.95
2023-04-22T11:25:14.421Z,3.60
2023-04-22T11:27:43.263Z,4.32
2023-04-22T11:30:11.811Z,3.13
2023-04-22T11:32:40.677Z,3.15
2023-04-22T11:35:09.182Z,3.03
2023-04-22T11:37:48.853Z,2.70
2023-04-22T11:42:56.034Z,4.10
2023-04-22T11:45:22.834Z,3.80
2023-04-22T11:47:50.722Z,2.25
2023-04-22T11:50:19.195Z,3.28
2023-04-22T11:52:51.558Z,3.15
2023-04-22T11:55:21.016Z,3.40
2023-04-22T11:57:57.497Z,2.08
2023-04-22T12:00:28.470Z,4.93
2023-04-22T12:03:02.857Z,6.47
2023-04-22T12:06:02.986Z,2.53
2023-04-22T12:08:37.158Z,2.80
2023-04-22T12:11:05.747Z,3.20
2023-04-22T12:13:38.039Z,2.88
2023-04-22T12:16:14.648Z,2.28
2023-04-22T12:18:51.877Z,5.15
2023-04-22T12:21:21.675Z,2.40
2023-04-22T12:23:49.715Z,3.28
2023-04-22T12:26:17.809Z,4.18
2023-04-22T12:28:45.192Z,3.03
2023-04-22T12:31:13.266Z,4.15
2023-04-22T12:33:40.129Z,2.95
2023-04-22T12:36:07.011Z,2.88
2023-04-22T12:38:33.829Z,4.10
2023-04-22T12:41:00.425Z,3.38
2023-04-22T12:43:27.295Z,2.95
2023-04-22T12:45:53.816Z,2.85
2023-04-22T12:48:20.626Z,2.67
2023-04-22T12:50:47.033Z,3.75
2023-04-22T12:53:15.227Z,6.20
2023-04-22T12:55:42.957Z,4.37
2023-04-22T12:58:11.247Z,3.17
2023-04-22T13:00:37.616Z,4.60
2023-04-22T13:03:04.209Z,4.35
2023-04-22T13:05:30.737Z,9.43
2023-04-22T13:08:06.603Z,3.00
2023-04-22T13:10:34.633Z,5.05
2023-04-22T13:13:17.049Z,4.15
2023-04-22T13:15:44.928Z,3.88
2023-04-22T13:18:11.486Z,4.68
2023-04-22T13:20:38.054Z,3.78
2023-04-22T13:23:04.677Z,7.22
2023-04-22T13:25:31.496Z,3.35
2023-04-22T13:27:57.917Z,3.30
2023-04-22T13:30:24.384Z,2.67
2023-04-22T13:32:51.741Z,3.22
2023-04-22T13:35:18.370Z,3.35
2023-04-22T13:37:46.062Z,4.07
2023-04-22T13:40:12.633Z,3.08
2023-04-22T13:42:39.089Z,4.65
2023-04-22T13:45:06.957Z,3.90
2023-04-22T13:47:33.431Z,2.65
2023-04-22T13:50:01.586Z,4.80
2023-04-22T13:52:28.091Z,4.93
2023-04-22T13:54:54.503Z,2.42
2023-04-22T13:57:21.168Z,3.13
2023-04-22T13:59:49.508Z,2.22
2023-04-22T14:02:16.207Z,3.17
2023-04-22T14:04:42.679Z,4.05
2023-04-22T14:07:09.574Z,2.85
2023-04-22T14:09:36.477Z,5.72
2023-04-22T14:12:03.699Z,3.10
2023-04-22T14:14:30.240Z,2.15
2023-04-22T14:16:56.954Z,5.95
2023-04-22T14:19:24.860Z,4.07
2023-04-22T14:21:51.519Z,6.38
2023-04-22T14:24:19.281Z,3.15
2023-04-22T14:26:45.704Z,2.83
2023-04-22T14:29:12.209Z,4.50
2023-04-22T14:31:38.633Z,3.33
2023-04-22T14:34:05.162Z,2.70
2023-04-22T14:36:31.964Z,2.75
2023-04-22T14:38:58.404Z,2.55
2023-04-22T14:41:24.996Z,4.05
2023-04-22T14:43:51.450Z,2.70
2023-04-22T14:46:17.924Z,3.60
2023-04-22T14:48:44.713Z,5.63
2023-04-22T14:51:11.589Z,3.97
2023-04-22T14:53:39.130Z,3.40
2023-04-22T14:56:05.572Z,3.45
2023-04-22T14:58:32.079Z,2.78
2023-04-22T15:00:59.741Z,4.22
2023-04-22T15:03:26.325Z,4.35
2023-04-22T15:05:53.055Z,4.43
2023-04-22T15:08:19.616Z,2.83
2023-04-22T15:10:46.057Z,4.10
2023-04-22T15:13:12.643Z,3.35
2023-04-22T15:15:39.083Z,4.03
2023-04-22T15:18:05.674Z,4.80
2023-04-22T15:20:32.157Z,3.60
2023-04-22T15:22:58.628Z,1.60
2023-04-22T15:25:27.131Z,4.22
2023-04-22T15:27:56.367Z,4.03
2023-04-22T15:30:23.555Z,3.40
2023-04-22T15:32:50.151Z,4.03
2023-04-22T15:35:16.679Z,3.10
2023-04-22T15:37:44.724Z,3.22
2023-04-22T15:40:11.684Z,3.80
2023-04-22T15:42:38.091Z,3.38
2023-04-22T15:45:05.115Z,3.85
2023-04-22T15:47:31.626Z,2.63
2023-04-22T15:50:05.890Z,3.65
2023-04-22T15:52:33.050Z,5.18
2023-04-22T15:55:01.558Z,2.42
2023-04-22T15:57:28.483Z,6.03
2023-04-22T16:00:06.770Z,3.53
2023-04-22T16:02:43.798Z,3.35
2023-04-22T16:05:14.865Z,3.30
2023-04-22T16:07:41.565Z,5.40
2023-04-22T16:10:08.982Z,4.30
2023-04-22T16:12:35.419Z,2.67
2023-04-22T16:15:02.193Z,4.53
2023-04-22T16:17:28.936Z,3.53
2023-04-22T16:19:55.500Z,5.82
2023-04-22T16:22:21.977Z,2.55
2023-04-22T16:24:48.495Z,3.53
2023-04-22T16:27:17.107Z,4.70
2023-04-22T16:29:43.919Z,3.00
2023-04-22T16:32:11.075Z,2.95
2023-04-22T16:34:38.298Z,2.38
2023-04-22T16:37:04.995Z,4.55
2023-04-22T16:39:31.544Z,4.22
2023-04-22T16:41:58.762Z,4.72
2023-04-22T16:44:25.178Z,3.65
2023-04-22T16:46:51.648Z,2.70
2023-04-22T16:49:18.176Z,3.80
2023-04-22T16:51:44.699Z,4.05
2023-04-22T16:54:11.148Z,3.30
2023-04-22T16:56:37.672Z,2.20
2023-04-22T16:59:04.130Z,3.90
2023-04-22T17:01:31.066Z,4.65
2023-04-22T17:03:57.806Z,5.35
2023-04-22T17:06:24.406Z,3.15
2023-04-22T17:08:52.448Z,2.30
2023-04-22T17:11:19.115Z,4.28
2023-04-22T17:13:45.597Z,2.47
2023-04-22T17:16:12.051Z,3.78
2023-04-22T17:18:38.529Z,2.45
2023-04-22T17:21:05.065Z,5.00
2023-04-22T17:23:31.615Z,2.95
2023-04-22T17:25:59.299Z,3.90
2023-04-22T17:28:25.749Z,3.10
2023-04-22T17:30:52.281Z,3.70
2023-04-22T17:33:18.688Z,5.90
2023-04-22T17:35:45.079Z,3.08
2023-04-22T17:38:11.488Z,2.60
2023-04-22T17:40:38.726Z,5.45
2023-04-22T17:43:05.115Z,4.88
2023-04-22T17:45:31.514Z,2.53
2023-04-22T17:47:57.947Z,4.05
2023-04-22T17:50:24.633Z,4.60
2023-04-22T17:52:51.048Z,3.30
2023-04-22T17:55:17.677Z,4.95
2023-04-22T17:57:45.218Z,3.72
2023-04-22T18:00:14.362Z,3.85
2023-04-22T18:02:41.872Z,4.25
2023-04-22T18:05:09.020Z,4.90
2023-04-22T18:07:35.470Z,5.15
2023-04-22T18:10:01.876Z,2.65
2023-04-22T18:12:30.389Z,5.28
2023-04-22T18:14:57.150Z,4.18
2023-04-22T18:17:23.639Z,5.18
2023-04-22T18:19:51.140Z,5.00
2023-04-22T18:22:18.433Z,5.63
2023-04-22T18:24:44.883Z,4.75
2023-04-22T18:27:11.308Z,5.70
2023-04-22T18:29:38.479Z,4.03
2023-04-22T18:32:05.236Z,4.35
2023-04-22T18:34:31.753Z,3.95
2023-04-22T18:36:58.212Z,5.47
2023-04-22T18:39:24.756Z,5.43
2023-04-22T18:41:51.684Z,3.95
2023-04-22T18:44:18.745Z,3.20
2023-04-22T18:46:45.702Z,6.88
2023-04-22T18:49:12.110Z,3.17
2023-04-22T18:52:37.706Z,5.72
2023-04-22T18:55:04.393Z,5.60
2023-04-22T18:57:31.032Z,4.55
2023-04-22T18:59:57.475Z,2.95
2023-04-22T19:02:24.028Z,5.55
2023-04-22T19:04:51.383Z,2.70
2023-04-22T19:07:20.107Z,3.88
2023-04-22T19:09:46.814Z,3.08
2023-04-22T19:12:18.800Z,3.65
2023-04-22T19:14:47.033Z,5.07
2023-04-22T19:17:13.826Z,4.30
2023-04-22T19:19:40.627Z,4.75
2023-04-22T19:22:07.261Z,3.58
2023-04-22T19:24:35.110Z,2.53
2023-04-22T19:27:06.895Z,4.60
2023-04-22T19:29:33.338Z,2.65
2023-04-22T19:32:00.518Z,3.95
2023-04-22T19:34:27.361Z,4.28
2023-04-22T19:36:54.311Z,3.92
2023-04-22T19:39:21.088Z,10.55
2023-04-22T19:41:47.553Z,4.15
2023-04-22T19:44:14.030Z,5.78
2023-04-22T19:46:40.645Z,5.88
2023-04-22T19:49:07.636Z,3.42
2023-04-22T19:51:37.780Z,4.85
2023-04-22T19:54:04.877Z,6.00
2023-04-22T19:56:35.457Z,4.25
2023-04-22T19:59:02.096Z,3.92
2023-04-22T20:01:28.854Z,3.83
2023-04-22T20:03:55.808Z,2.60
2023-04-22T20:06:22.615Z,5.05
2023-04-22T20:08:52.066Z,7.18
2023-04-22T20:11:20.047Z,4.72
2023-04-22T20:13:48.123Z,3.85
2023-04-22T20:16:15.119Z,3.70
2023-04-22T20:18:42.131Z,4.10
2023-04-22T20:21:08.846Z,3.63
2023-04-22T20:23:35.585Z,3.55
2023-04-22T20:26:02.740Z,4.65
2023-04-22T20:28:45.520Z,4.70
2023-04-22T20:31:13.562Z,5.40
2023-04-22T20:33:40.888Z,4.75
2023-04-22T20:36:07.632Z,3.60
2023-04-22T20:38:39.395Z,4.53
2023-04-22T20:41:07.686Z,4.18
2023-04-22T20:43:37.240Z,4.50
2023-04-22T20:46:03.923Z,4.40
2023-04-22T20:48:30.566Z,4.00
2023-04-22T20:50:57.075Z,4.50
2023-04-22T20:53:24.521Z,3.88
2023-04-22T20:55:51.220Z,5.18
2023-04-22T20:58:17.824Z,5.32
2023-04-22T21:00:45.690Z,4.90
2023-04-22T21:03:15.871Z,5.80
2023-04-22T21:05:45.199Z,3.83
2023-04-22T21:08:24.711Z,5.18
2023-04-22T21:10:53.301Z,5.10
2023-04-22T21:13:20.827Z,4.88
2023-04-22T21:15:56.317Z,3.53
2023-04-22T21:18:25.677Z,4.80
2023-04-22T21:23:20.901Z,4.07
2023-04-22T21:25:51.273Z,4.90
2023-04-22T21:28:19.369Z,4.55
2023-04-22T21:30:46.366Z,5.95
2023-04-22T21:33:13.365Z,3.92
2023-04-22T21:35:40.927Z,4.63
2023-04-22T21:38:08.316Z,4.65
2023-04-22T21:40:35.373Z,3.58
2023-04-22T21:43:02.427Z,4.68
2023-04-22T21:45:29.091Z,4.30
2023-04-22T21:47:55.978Z,7.65
2023-04-22T21:50:23.245Z,3.40
2023-04-22T21:52:49.833Z,4.10
2023-04-22T21:55:16.521Z,4.90
2023-04-22T21:57:43.283Z,3.97
